Weather at Cairo International Airport

Public forecast

Using degrees Celsius for public forecast. Weather courtesy of forecast.io.

Current aviation weather report (METAR) for Cairo International Airport

Report is more than 6 hours old.

2022/11/14 15:30 (retrieved 2 years ago)

HECA 141530Z 01010KT 9999 SCT025 SCT070 23/12 Q1018 NOSIG

Aviation forecast (TAF) for Cairo International Airport

Forecast is more than 12 hours old.

2023/02/22 18:54 (retrieved 1 year ago)

TAF HECA 221700Z 2218/2324 32006KT 9999 BKN025 TEMPO 2222/2308 VRB03KT 4000 BR NSC TEMPO 2301/2306 2000